sensor_id;sensor_type;location;lat;lon;timestamp;P1;durP1;ratioP1;P2;durP2;ratioP2
77518;SDS011;66629;47.346;19.038;2023-04-09T00:02:11;35.38;;;28.58;;
77518;SDS011;66629;47.346;19.038;2023-04-09T00:04:36;31.27;;;25.85;;
77518;SDS011;66629;47.346;19.038;2023-04-09T00:07:02;33.88;;;26.60;;
77518;SDS011;66629;47.346;19.038;2023-04-09T00:09:27;35.78;;;26.48;;
77518;SDS011;66629;47.346;19.038;2023-04-09T00:11:53;34.55;;;26.35;;
77518;SDS011;66629;47.346;19.038;2023-04-09T00:14:18;31.52;;;24.73;;
77518;SDS011;66629;47.346;19.038;2023-04-09T00:16:43;31.77;;;25.05;;
77518;SDS011;66629;47.346;19.038;2023-04-09T00:19:09;30.42;;;24.23;;
77518;SDS011;66629;47.346;19.038;2023-04-09T00:21:35;33.08;;;23.70;;
77518;SDS011;66629;47.346;19.038;2023-04-09T00:24:01;29.00;;;22.10;;
77518;SDS011;66629;47.346;19.038;2023-04-09T00:26:26;27.20;;;20.98;;
77518;SDS011;66629;47.346;19.038;2023-04-09T00:28:52;26.88;;;21.38;;
77518;SDS011;66629;47.346;19.038;2023-04-09T00:31:17;27.90;;;21.83;;
77518;SDS011;66629;47.346;19.038;2023-04-09T00:33:43;27.23;;;20.65;;
77518;SDS011;66629;47.346;19.038;2023-04-09T00:36:08;28.77;;;21.52;;
77518;SDS011;66629;47.346;19.038;2023-04-09T00:38:33;26.17;;;20.75;;
77518;SDS011;66629;47.346;19.038;2023-04-09T00:40:59;26.92;;;21.15;;
77518;SDS011;66629;47.346;19.038;2023-04-09T00:43:25;29.05;;;21.92;;
77518;SDS011;66629;47.346;19.038;2023-04-09T00:45:51;29.50;;;22.15;;
77518;SDS011;66629;47.346;19.038;2023-04-09T00:48:16;29.92;;;21.95;;
77518;SDS011;66629;47.346;19.038;2023-04-09T00:50:42;27.85;;;20.67;;
77518;SDS011;66629;47.346;19.038;2023-04-09T00:53:08;27.45;;;21.50;;
77518;SDS011;66629;47.346;19.038;2023-04-09T00:55:36;27.70;;;21.30;;
77518;SDS011;66629;47.346;19.038;2023-04-09T00:58:04;28.20;;;21.85;;
77518;SDS011;66629;47.346;19.038;2023-04-09T01:00:30;30.65;;;22.40;;
77518;SDS011;66629;47.346;19.038;2023-04-09T01:02:55;28.38;;;20.35;;
77518;SDS011;66629;47.346;19.038;2023-04-09T01:05:22;26.70;;;19.90;;
77518;SDS011;66629;47.346;19.038;2023-04-09T01:10:46;25.08;;;19.33;;
77518;SDS011;66629;47.346;19.038;2023-04-09T01:13:21;25.08;;;19.40;;
77518;SDS011;66629;47.346;19.038;2023-04-09T01:15:58;23.75;;;19.58;;
77518;SDS011;66629;47.346;19.038;2023-04-09T01:21:11;26.65;;;20.15;;
77518;SDS011;66629;47.346;19.038;2023-04-09T01:29:14;26.08;;;20.02;;
77518;SDS011;66629;47.346;19.038;2023-04-09T01:31:41;26.15;;;19.98;;
77518;SDS011;66629;47.346;19.038;2023-04-09T01:34:08;25.90;;;20.23;;
77518;SDS011;66629;47.346;19.038;2023-04-09T01:36:35;24.70;;;19.55;;
77518;SDS011;66629;47.346;19.038;2023-04-09T01:39:03;23.52;;;19.02;;
77518;SDS011;66629;47.346;19.038;2023-04-09T01:41:31;25.45;;;20.08;;
77518;SDS011;66629;47.346;19.038;2023-04-09T01:43:58;26.08;;;20.20;;
77518;SDS011;66629;47.346;19.038;2023-04-09T01:46:25;24.10;;;20.05;;
77518;SDS011;66629;47.346;19.038;2023-04-09T01:48:51;25.08;;;20.17;;
77518;SDS011;66629;47.346;19.038;2023-04-09T01:51:17;27.73;;;20.08;;
77518;SDS011;66629;47.346;19.038;2023-04-09T01:53:43;26.27;;;19.92;;
77518;SDS011;66629;47.346;19.038;2023-04-09T01:56:09;27.38;;;21.05;;
77518;SDS011;66629;47.346;19.038;2023-04-09T01:58:34;28.25;;;20.10;;
77518;SDS011;66629;47.346;19.038;2023-04-09T02:01:09;24.73;;;19.60;;
77518;SDS011;66629;47.346;19.038;2023-04-09T02:03:39;26.13;;;21.08;;
77518;SDS011;66629;47.346;19.038;2023-04-09T02:06:15;27.38;;;21.15;;
77518;SDS011;66629;47.346;19.038;2023-04-09T02:08:45;25.92;;;19.45;;
77518;SDS011;66629;47.346;19.038;2023-04-09T02:11:12;25.60;;;20.10;;
77518;SDS011;66629;47.346;19.038;2023-04-09T02:13:39;26.30;;;19.27;;
77518;SDS011;66629;47.346;19.038;2023-04-09T02:16:07;27.30;;;20.13;;
77518;SDS011;66629;47.346;19.038;2023-04-09T02:18:35;25.63;;;19.48;;
77518;SDS011;66629;47.346;19.038;2023-04-09T02:21:03;25.20;;;19.58;;
77518;SDS011;66629;47.346;19.038;2023-04-09T02:23:29;25.52;;;20.00;;
77518;SDS011;66629;47.346;19.038;2023-04-09T02:25:57;26.35;;;20.05;;
77518;SDS011;66629;47.346;19.038;2023-04-09T02:28:23;25.65;;;19.65;;
77518;SDS011;66629;47.346;19.038;2023-04-09T02:30:48;27.15;;;21.08;;
77518;SDS011;66629;47.346;19.038;2023-04-09T02:33:14;27.13;;;19.77;;
77518;SDS011;66629;47.346;19.038;2023-04-09T02:35:39;26.92;;;20.17;;
77518;SDS011;66629;47.346;19.038;2023-04-09T02:38:05;27.30;;;20.80;;
77518;SDS011;66629;47.346;19.038;2023-04-09T02:40:32;26.05;;;20.50;;
77518;SDS011;66629;47.346;19.038;2023-04-09T02:42:57;26.95;;;20.85;;
77518;SDS011;66629;47.346;19.038;2023-04-09T02:45:23;28.70;;;22.27;;
77518;SDS011;66629;47.346;19.038;2023-04-09T02:47:48;30.15;;;22.40;;
77518;SDS011;66629;47.346;19.038;2023-04-09T02:50:14;27.60;;;21.13;;
77518;SDS011;66629;47.346;19.038;2023-04-09T02:52:39;28.73;;;20.95;;
77518;SDS011;66629;47.346;19.038;2023-04-09T02:55:05;27.52;;;20.70;;
77518;SDS011;66629;47.346;19.038;2023-04-09T02:57:31;26.20;;;20.17;;
77518;SDS011;66629;47.346;19.038;2023-04-09T02:59:57;24.38;;;18.98;;
77518;SDS011;66629;47.346;19.038;2023-04-09T03:02:23;23.38;;;18.73;;
77518;SDS011;66629;47.346;19.038;2023-04-09T03:04:48;24.25;;;18.65;;
77518;SDS011;66629;47.346;19.038;2023-04-09T03:07:13;23.90;;;18.35;;
77518;SDS011;66629;47.346;19.038;2023-04-09T03:09:39;25.95;;;18.08;;
77518;SDS011;66629;47.346;19.038;2023-04-09T03:12:04;22.30;;;17.50;;
77518;SDS011;66629;47.346;19.038;2023-04-09T03:14:30;23.98;;;18.80;;
77518;SDS011;66629;47.346;19.038;2023-04-09T03:16:55;24.13;;;18.27;;
77518;SDS011;66629;47.346;19.038;2023-04-09T03:19:20;22.63;;;17.65;;
77518;SDS011;66629;47.346;19.038;2023-04-09T03:21:46;24.00;;;17.42;;
77518;SDS011;66629;47.346;19.038;2023-04-09T03:24:13;22.75;;;17.58;;
77518;SDS011;66629;47.346;19.038;2023-04-09T03:26:39;25.80;;;18.00;;
77518;SDS011;66629;47.346;19.038;2023-04-09T03:29:04;27.38;;;18.85;;
77518;SDS011;66629;47.346;19.038;2023-04-09T03:31:30;24.52;;;18.98;;
77518;SDS011;66629;47.346;19.038;2023-04-09T03:33:56;24.70;;;18.88;;
77518;SDS011;66629;47.346;19.038;2023-04-09T03:36:22;22.92;;;17.13;;
77518;SDS011;66629;47.346;19.038;2023-04-09T03:38:47;25.20;;;18.55;;
77518;SDS011;66629;47.346;19.038;2023-04-09T03:41:13;23.63;;;18.00;;
77518;SDS011;66629;47.346;19.038;2023-04-09T03:43:38;22.83;;;17.38;;
77518;SDS011;66629;47.346;19.038;2023-04-09T03:46:11;23.48;;;18.13;;
77518;SDS011;66629;47.346;19.038;2023-04-09T03:48:37;21.83;;;18.27;;
77518;SDS011;66629;47.346;19.038;2023-04-09T03:51:02;26.00;;;19.33;;
77518;SDS011;66629;47.346;19.038;2023-04-09T03:53:28;26.35;;;19.58;;
77518;SDS011;66629;47.346;19.038;2023-04-09T03:55:53;24.40;;;18.63;;
77518;SDS011;66629;47.346;19.038;2023-04-09T03:58:18;25.90;;;19.70;;
77518;SDS011;66629;47.346;19.038;2023-04-09T04:00:44;26.88;;;19.80;;
77518;SDS011;66629;47.346;19.038;2023-04-09T04:03:10;23.38;;;18.20;;
77518;SDS011;66629;47.346;19.038;2023-04-09T04:05:36;26.08;;;19.33;;
77518;SDS011;66629;47.346;19.038;2023-04-09T04:08:01;25.63;;;18.73;;
77518;SDS011;66629;47.346;19.038;2023-04-09T04:10:26;26.15;;;19.85;;
77518;SDS011;66629;47.346;19.038;2023-04-09T04:12:52;28.17;;;20.98;;
77518;SDS011;66629;47.346;19.038;2023-04-09T04:15:17;27.33;;;20.15;;
77518;SDS011;66629;47.346;19.038;2023-04-09T04:17:44;29.48;;;21.73;;
77518;SDS011;66629;47.346;19.038;2023-04-09T04:20:09;30.50;;;21.52;;
77518;SDS011;66629;47.346;19.038;2023-04-09T04:22:35;29.95;;;21.65;;
77518;SDS011;66629;47.346;19.038;2023-04-09T04:25:01;28.67;;;21.63;;
77518;SDS011;66629;47.346;19.038;2023-04-09T04:27:27;29.30;;;21.85;;
77518;SDS011;66629;47.346;19.038;2023-04-09T04:29:53;25.95;;;20.38;;
77518;SDS011;66629;47.346;19.038;2023-04-09T04:32:18;27.05;;;21.33;;
77518;SDS011;66629;47.346;19.038;2023-04-09T04:34:47;26.55;;;20.27;;
77518;SDS011;66629;47.346;19.038;2023-04-09T04:37:13;28.17;;;20.90;;
77518;SDS011;66629;47.346;19.038;2023-04-09T04:39:39;27.58;;;21.13;;
77518;SDS011;66629;47.346;19.038;2023-04-09T04:42:04;28.30;;;20.88;;
77518;SDS011;66629;47.346;19.038;2023-04-09T04:44:30;28.88;;;21.42;;
77518;SDS011;66629;47.346;19.038;2023-04-09T04:46:55;29.58;;;21.92;;
77518;SDS011;66629;47.346;19.038;2023-04-09T04:49:21;31.50;;;21.20;;
77518;SDS011;66629;47.346;19.038;2023-04-09T04:51:46;27.98;;;21.45;;
77518;SDS011;66629;47.346;19.038;2023-04-09T04:54:11;28.00;;;20.48;;
77518;SDS011;66629;47.346;19.038;2023-04-09T04:56:37;28.65;;;21.50;;
77518;SDS011;66629;47.346;19.038;2023-04-09T04:59:02;29.48;;;21.27;;
77518;SDS011;66629;47.346;19.038;2023-04-09T05:01:28;28.40;;;20.35;;
77518;SDS011;66629;47.346;19.038;2023-04-09T05:03:53;39.33;;;26.80;;
77518;SDS011;66629;47.346;19.038;2023-04-09T05:06:19;48.90;;;30.20;;
77518;SDS011;66629;47.346;19.038;2023-04-09T05:08:44;36.15;;;23.63;;
77518;SDS011;66629;47.346;19.038;2023-04-09T05:11:10;31.55;;;22.50;;
77518;SDS011;66629;47.346;19.038;2023-04-09T05:13:37;30.52;;;21.83;;
77518;SDS011;66629;47.346;19.038;2023-04-09T05:16:02;31.85;;;23.63;;
77518;SDS011;66629;47.346;19.038;2023-04-09T05:18:28;36.88;;;25.40;;
77518;SDS011;66629;47.346;19.038;2023-04-09T05:20:53;36.83;;;25.70;;
77518;SDS011;66629;47.346;19.038;2023-04-09T05:23:18;35.63;;;26.73;;
77518;SDS011;66629;47.346;19.038;2023-04-09T05:25:44;36.72;;;27.05;;
77518;SDS011;66629;47.346;19.038;2023-04-09T05:28:09;36.33;;;27.83;;
77518;SDS011;66629;47.346;19.038;2023-04-09T05:30:35;36.97;;;27.35;;
77518;SDS011;66629;47.346;19.038;2023-04-09T05:33:01;43.78;;;34.17;;
77518;SDS011;66629;47.346;19.038;2023-04-09T05:35:26;42.30;;;34.10;;
77518;SDS011;66629;47.346;19.038;2023-04-09T05:37:51;39.65;;;30.52;;
77518;SDS011;66629;47.346;19.038;2023-04-09T05:40:17;36.40;;;27.33;;
77518;SDS011;66629;47.346;19.038;2023-04-09T05:42:42;35.22;;;27.30;;
77518;SDS011;66629;47.346;19.038;2023-04-09T05:45:08;32.33;;;24.83;;
77518;SDS011;66629;47.346;19.038;2023-04-09T05:47:33;33.55;;;24.88;;
77518;SDS011;66629;47.346;19.038;2023-04-09T05:49:59;32.28;;;24.23;;
77518;SDS011;66629;47.346;19.038;2023-04-09T05:52:24;30.08;;;23.05;;
77518;SDS011;66629;47.346;19.038;2023-04-09T05:54:50;27.23;;;20.88;;
77518;SDS011;66629;47.346;19.038;2023-04-09T05:57:16;30.92;;;22.15;;
77518;SDS011;66629;47.346;19.038;2023-04-09T05:59:42;26.90;;;20.65;;
77518;SDS011;66629;47.346;19.038;2023-04-09T06:02:07;28.30;;;20.10;;
77518;SDS011;66629;47.346;19.038;2023-04-09T06:04:33;27.02;;;19.92;;
77518;SDS011;66629;47.346;19.038;2023-04-09T06:06:58;24.52;;;19.67;;
77518;SDS011;66629;47.346;19.038;2023-04-09T06:09:24;30.05;;;21.98;;
77518;SDS011;66629;47.346;19.038;2023-04-09T06:11:51;27.92;;;21.35;;
77518;SDS011;66629;47.346;19.038;2023-04-09T06:14:17;26.30;;;21.27;;
77518;SDS011;66629;47.346;19.038;2023-04-09T06:16:42;28.95;;;21.92;;
77518;SDS011;66629;47.346;19.038;2023-04-09T06:19:08;26.95;;;20.92;;
77518;SDS011;66629;47.346;19.038;2023-04-09T06:21:33;29.05;;;21.90;;
77518;SDS011;66629;47.346;19.038;2023-04-09T06:23:58;42.95;;;29.50;;
77518;SDS011;66629;47.346;19.038;2023-04-09T06:26:24;28.38;;;23.23;;
77518;SDS011;66629;47.346;19.038;2023-04-09T06:28:50;27.38;;;21.75;;
77518;SDS011;66629;47.346;19.038;2023-04-09T06:31:16;28.05;;;20.70;;
77518;SDS011;66629;47.346;19.038;2023-04-09T06:33:41;24.77;;;18.77;;
77518;SDS011;66629;47.346;19.038;2023-04-09T06:36:07;24.00;;;19.25;;
77518;SDS011;66629;47.346;19.038;2023-04-09T06:38:32;22.20;;;18.77;;
77518;SDS011;66629;47.346;19.038;2023-04-09T06:40:57;24.08;;;18.98;;
77518;SDS011;66629;47.346;19.038;2023-04-09T06:43:23;26.95;;;20.55;;
77518;SDS011;66629;47.346;19.038;2023-04-09T06:45:48;23.30;;;17.65;;
77518;SDS011;66629;47.346;19.038;2023-04-09T06:48:14;22.77;;;18.52;;
77518;SDS011;66629;47.346;19.038;2023-04-09T06:50:39;27.00;;;19.98;;
77518;SDS011;66629;47.346;19.038;2023-04-09T06:53:05;26.55;;;20.40;;
77518;SDS011;66629;47.346;19.038;2023-04-09T06:55:31;26.27;;;22.13;;
77518;SDS011;66629;47.346;19.038;2023-04-09T06:57:56;23.63;;;18.20;;
77518;SDS011;66629;47.346;19.038;2023-04-09T07:00:22;23.17;;;19.20;;
77518;SDS011;66629;47.346;19.038;2023-04-09T07:02:47;16.33;;;12.68;;
77518;SDS011;66629;47.346;19.038;2023-04-09T07:05:13;16.20;;;12.65;;
77518;SDS011;66629;47.346;19.038;2023-04-09T07:07:39;14.32;;;11.63;;
77518;SDS011;66629;47.346;19.038;2023-04-09T07:10:05;13.15;;;10.60;;
77518;SDS011;66629;47.346;19.038;2023-04-09T07:12:32;12.80;;;9.90;;
77518;SDS011;66629;47.346;19.038;2023-04-09T07:15:02;14.07;;;11.95;;
77518;SDS011;66629;47.346;19.038;2023-04-09T07:17:30;16.20;;;12.32;;
77518;SDS011;66629;47.346;19.038;2023-04-09T07:19:56;13.18;;;10.55;;
77518;SDS011;66629;47.346;19.038;2023-04-09T07:22:21;14.20;;;11.60;;
77518;SDS011;66629;47.346;19.038;2023-04-09T07:24:48;14.10;;;11.25;;
77518;SDS011;66629;47.346;19.038;2023-04-09T07:27:18;15.27;;;11.75;;
77518;SDS011;66629;47.346;19.038;2023-04-09T07:29:45;13.32;;;10.00;;
77518;SDS011;66629;47.346;19.038;2023-04-09T07:32:10;14.00;;;10.77;;
77518;SDS011;66629;47.346;19.038;2023-04-09T07:34:36;15.57;;;11.90;;
77518;SDS011;66629;47.346;19.038;2023-04-09T07:37:01;14.38;;;10.93;;
77518;SDS011;66629;47.346;19.038;2023-04-09T07:39:27;14.52;;;11.40;;
77518;SDS011;66629;47.346;19.038;2023-04-09T07:41:52;12.27;;;9.15;;
77518;SDS011;66629;47.346;19.038;2023-04-09T07:44:18;12.02;;;8.93;;
77518;SDS011;66629;47.346;19.038;2023-04-09T07:46:43;12.25;;;8.77;;
77518;SDS011;66629;47.346;19.038;2023-04-09T07:49:08;13.35;;;10.02;;
77518;SDS011;66629;47.346;19.038;2023-04-09T07:51:34;12.52;;;9.02;;
77518;SDS011;66629;47.346;19.038;2023-04-09T07:53:59;11.43;;;8.88;;
77518;SDS011;66629;47.346;19.038;2023-04-09T07:56:25;9.20;;;7.25;;
77518;SDS011;66629;47.346;19.038;2023-04-09T07:58:50;10.85;;;8.55;;
77518;SDS011;66629;47.346;19.038;2023-04-09T08:01:15;11.98;;;8.82;;
77518;SDS011;66629;47.346;19.038;2023-04-09T08:03:41;13.75;;;9.10;;
77518;SDS011;66629;47.346;19.038;2023-04-09T08:06:06;11.90;;;8.95;;
77518;SDS011;66629;47.346;19.038;2023-04-09T08:08:32;9.85;;;7.82;;
77518;SDS011;66629;47.346;19.038;2023-04-09T08:10:58;9.57;;;7.20;;
77518;SDS011;66629;47.346;19.038;2023-04-09T08:13:23;11.10;;;7.18;;
77518;SDS011;66629;47.346;19.038;2023-04-09T08:15:52;9.27;;;7.35;;
77518;SDS011;66629;47.346;19.038;2023-04-09T08:18:17;10.80;;;7.53;;
77518;SDS011;66629;47.346;19.038;2023-04-09T08:20:43;10.52;;;8.00;;
77518;SDS011;66629;47.346;19.038;2023-04-09T08:23:12;11.82;;;9.30;;
77518;SDS011;66629;47.346;19.038;2023-04-09T08:25:37;8.55;;;6.57;;
77518;SDS011;66629;47.346;19.038;2023-04-09T08:28:03;9.82;;;7.90;;
77518;SDS011;66629;47.346;19.038;2023-04-09T08:30:28;12.00;;;8.52;;
77518;SDS011;66629;47.346;19.038;2023-04-09T08:32:54;11.50;;;8.73;;
77518;SDS011;66629;47.346;19.038;2023-04-09T08:35:19;13.30;;;9.63;;
77518;SDS011;66629;47.346;19.038;2023-04-09T08:37:44;12.93;;;9.90;;
77518;SDS011;66629;47.346;19.038;2023-04-09T08:40:10;11.98;;;9.43;;
77518;SDS011;66629;47.346;19.038;2023-04-09T08:42:38;13.50;;;9.77;;
77518;SDS011;66629;47.346;19.038;2023-04-09T08:45:09;11.45;;;9.02;;
77518;SDS011;66629;47.346;19.038;2023-04-09T08:47:35;13.38;;;10.35;;
77518;SDS011;66629;47.346;19.038;2023-04-09T08:50:02;14.60;;;10.77;;
77518;SDS011;66629;47.346;19.038;2023-04-09T08:52:32;13.07;;;11.10;;
77518;SDS011;66629;47.346;19.038;2023-04-09T08:54:58;11.77;;;8.95;;
77518;SDS011;66629;47.346;19.038;2023-04-09T08:57:24;13.38;;;9.55;;
77518;SDS011;66629;47.346;19.038;2023-04-09T08:59:49;11.82;;;8.80;;
77518;SDS011;66629;47.346;19.038;2023-04-09T09:02:14;12.27;;;9.38;;
77518;SDS011;66629;47.346;19.038;2023-04-09T09:04:44;11.02;;;7.70;;
77518;SDS011;66629;47.346;19.038;2023-04-09T09:07:13;11.32;;;8.65;;
77518;SDS011;66629;47.346;19.038;2023-04-09T09:09:49;10.73;;;8.32;;
77518;SDS011;66629;47.346;19.038;2023-04-09T09:12:32;11.48;;;8.15;;
77518;SDS011;66629;47.346;19.038;2023-04-09T09:17:57;9.82;;;7.38;;
77518;SDS011;66629;47.346;19.038;2023-04-09T09:20:24;9.13;;;7.55;;
77518;SDS011;66629;47.346;19.038;2023-04-09T09:22:52;9.48;;;7.20;;
77518;SDS011;66629;47.346;19.038;2023-04-09T09:25:19;11.45;;;8.27;;
77518;SDS011;66629;47.346;19.038;2023-04-09T09:27:48;10.95;;;7.88;;
77518;SDS011;66629;47.346;19.038;2023-04-09T09:30:21;10.20;;;8.15;;
77518;SDS011;66629;47.346;19.038;2023-04-09T09:32:51;9.80;;;8.00;;
77518;SDS011;66629;47.346;19.038;2023-04-09T09:35:18;10.93;;;8.30;;
77518;SDS011;66629;47.346;19.038;2023-04-09T09:37:43;10.55;;;8.80;;
77518;SDS011;66629;47.346;19.038;2023-04-09T09:40:09;12.48;;;9.98;;
77518;SDS011;66629;47.346;19.038;2023-04-09T09:42:35;12.43;;;9.85;;
77518;SDS011;66629;47.346;19.038;2023-04-09T09:45:01;11.93;;;10.30;;
77518;SDS011;66629;47.346;19.038;2023-04-09T09:47:41;13.07;;;10.05;;
77518;SDS011;66629;47.346;19.038;2023-04-09T09:50:07;12.13;;;9.55;;
77518;SDS011;66629;47.346;19.038;2023-04-09T09:52:33;12.98;;;10.30;;
77518;SDS011;66629;47.346;19.038;2023-04-09T09:54:59;12.73;;;9.27;;
77518;SDS011;66629;47.346;19.038;2023-04-09T09:57:28;13.20;;;10.48;;
77518;SDS011;66629;47.346;19.038;2023-04-09T10:00:00;11.65;;;8.88;;
77518;SDS011;66629;47.346;19.038;2023-04-09T10:02:27;10.88;;;8.52;;
77518;SDS011;66629;47.346;19.038;2023-04-09T10:05:01;12.18;;;9.38;;
77518;SDS011;66629;47.346;19.038;2023-04-09T10:07:28;12.80;;;9.90;;
77518;SDS011;66629;47.346;19.038;2023-04-09T10:09:55;11.55;;;9.70;;
77518;SDS011;66629;47.346;19.038;2023-04-09T10:12:22;13.18;;;10.38;;
77518;SDS011;66629;47.346;19.038;2023-04-09T10:14:53;12.43;;;9.93;;
77518;SDS011;66629;47.346;19.038;2023-04-09T10:17:20;11.68;;;9.77;;
77518;SDS011;66629;47.346;19.038;2023-04-09T10:19:48;11.85;;;9.75;;
77518;SDS011;66629;47.346;19.038;2023-04-09T10:22:29;12.97;;;9.10;;
77518;SDS011;66629;47.346;19.038;2023-04-09T10:24:57;12.13;;;9.32;;
77518;SDS011;66629;47.346;19.038;2023-04-09T10:27:24;13.38;;;10.40;;
77518;SDS011;66629;47.346;19.038;2023-04-09T10:29:52;14.23;;;10.77;;
77518;SDS011;66629;47.346;19.038;2023-04-09T10:32:21;12.60;;;10.10;;
77518;SDS011;66629;47.346;19.038;2023-04-09T10:34:50;12.73;;;10.20;;
77518;SDS011;66629;47.346;19.038;2023-04-09T10:37:20;14.90;;;10.98;;
77518;SDS011;66629;47.346;19.038;2023-04-09T10:39:47;12.32;;;10.13;;
77518;SDS011;66629;47.346;19.038;2023-04-09T10:42:16;11.75;;;9.73;;
77518;SDS011;66629;47.346;19.038;2023-04-09T10:44:43;13.45;;;10.77;;
77518;SDS011;66629;47.346;19.038;2023-04-09T10:47:09;13.65;;;9.60;;
77518;SDS011;66629;47.346;19.038;2023-04-09T10:49:36;14.38;;;10.65;;
77518;SDS011;66629;47.346;19.038;2023-04-09T10:52:09;14.52;;;11.02;;
77518;SDS011;66629;47.346;19.038;2023-04-09T10:54:38;13.27;;;10.43;;
77518;SDS011;66629;47.346;19.038;2023-04-09T10:57:13;14.20;;;10.63;;
77518;SDS011;66629;47.346;19.038;2023-04-09T10:59:51;14.00;;;10.85;;
77518;SDS011;66629;47.346;19.038;2023-04-09T11:07:14;12.15;;;9.43;;
77518;SDS011;66629;47.346;19.038;2023-04-09T11:09:43;12.98;;;9.77;;
77518;SDS011;66629;47.346;19.038;2023-04-09T11:12:10;12.48;;;10.30;;
77518;SDS011;66629;47.346;19.038;2023-04-09T11:14:35;12.20;;;9.93;;
77518;SDS011;66629;47.346;19.038;2023-04-09T11:17:02;13.88;;;10.80;;
77518;SDS011;66629;47.346;19.038;2023-04-09T11:19:27;12.88;;;9.05;;
77518;SDS011;66629;47.346;19.038;2023-04-09T11:21:53;11.70;;;9.35;;
77518;SDS011;66629;47.346;19.038;2023-04-09T11:24:18;11.43;;;9.27;;
77518;SDS011;66629;47.346;19.038;2023-04-09T11:26:44;10.65;;;9.07;;
77518;SDS011;66629;47.346;19.038;2023-04-09T11:29:11;14.50;;;10.10;;
77518;SDS011;66629;47.346;19.038;2023-04-09T11:31:36;13.68;;;10.23;;
77518;SDS011;66629;47.346;19.038;2023-04-09T11:34:02;20.33;;;12.25;;
77518;SDS011;66629;47.346;19.038;2023-04-09T11:36:28;17.60;;;11.27;;
77518;SDS011;66629;47.346;19.038;2023-04-09T11:38:53;20.13;;;11.77;;
77518;SDS011;66629;47.346;19.038;2023-04-09T11:41:35;13.05;;;10.15;;
77518;SDS011;66629;47.346;19.038;2023-04-09T11:44:04;12.45;;;10.57;;
77518;SDS011;66629;47.346;19.038;2023-04-09T11:46:33;13.18;;;9.65;;
77518;SDS011;66629;47.346;19.038;2023-04-09T11:48:59;13.30;;;10.05;;
77518;SDS011;66629;47.346;19.038;2023-04-09T11:51:26;11.45;;;9.18;;
77518;SDS011;66629;47.346;19.038;2023-04-09T11:53:52;14.10;;;10.70;;
77518;SDS011;66629;47.346;19.038;2023-04-09T11:56:18;13.02;;;10.50;;
77518;SDS011;66629;47.346;19.038;2023-04-09T11:58:45;13.40;;;10.75;;
77518;SDS011;66629;47.346;19.038;2023-04-09T12:01:14;14.82;;;11.40;;
77518;SDS011;66629;47.346;19.038;2023-04-09T12:03:40;13.73;;;10.15;;
77518;SDS011;66629;47.346;19.038;2023-04-09T12:06:06;13.80;;;10.80;;
77518;SDS011;66629;47.346;19.038;2023-04-09T12:08:33;13.77;;;10.52;;
77518;SDS011;66629;47.346;19.038;2023-04-09T12:11:06;11.32;;;9.55;;
77518;SDS011;66629;47.346;19.038;2023-04-09T12:13:34;12.95;;;10.35;;
77518;SDS011;66629;47.346;19.038;2023-04-09T12:15:59;16.77;;;11.73;;
77518;SDS011;66629;47.346;19.038;2023-04-09T12:18:27;13.43;;;10.32;;
77518;SDS011;66629;47.346;19.038;2023-04-09T12:20:52;13.55;;;10.73;;
77518;SDS011;66629;47.346;19.038;2023-04-09T12:23:18;12.25;;;9.73;;
77518;SDS011;66629;47.346;19.038;2023-04-09T12:25:43;12.85;;;9.80;;
77518;SDS011;66629;47.346;19.038;2023-04-09T12:28:11;13.00;;;10.70;;
77518;SDS011;66629;47.346;19.038;2023-04-09T12:30:39;13.48;;;9.98;;
77518;SDS011;66629;47.346;19.038;2023-04-09T12:33:05;14.73;;;10.93;;
77518;SDS011;66629;47.346;19.038;2023-04-09T12:35:30;14.38;;;10.80;;
77518;SDS011;66629;47.346;19.038;2023-04-09T12:37:56;13.13;;;10.50;;
77518;SDS011;66629;47.346;19.038;2023-04-09T12:40:23;13.43;;;9.88;;
77518;SDS011;66629;47.346;19.038;2023-04-09T12:42:48;13.20;;;10.00;;
77518;SDS011;66629;47.346;19.038;2023-04-09T12:45:14;11.45;;;9.77;;
77518;SDS011;66629;47.346;19.038;2023-04-09T12:47:41;14.35;;;9.73;;
77518;SDS011;66629;47.346;19.038;2023-04-09T12:50:07;12.52;;;9.85;;
77518;SDS011;66629;47.346;19.038;2023-04-09T12:52:34;12.88;;;10.07;;
77518;SDS011;66629;47.346;19.038;2023-04-09T12:54:59;12.50;;;9.95;;
77518;SDS011;66629;47.346;19.038;2023-04-09T12:57:25;14.27;;;10.75;;
77518;SDS011;66629;47.346;19.038;2023-04-09T12:59:51;13.48;;;10.90;;
77518;SDS011;66629;47.346;19.038;2023-04-09T13:02:18;14.57;;;11.02;;
77518;SDS011;66629;47.346;19.038;2023-04-09T13:04:44;14.65;;;11.40;;
77518;SDS011;66629;47.346;19.038;2023-04-09T13:07:10;13.55;;;10.35;;
77518;SDS011;66629;47.346;19.038;2023-04-09T13:09:37;14.10;;;10.15;;
77518;SDS011;66629;47.346;19.038;2023-04-09T13:12:02;13.60;;;10.82;;
77518;SDS011;66629;47.346;19.038;2023-04-09T13:14:28;13.65;;;10.18;;
77518;SDS011;66629;47.346;19.038;2023-04-09T13:16:53;12.63;;;10.25;;
77518;SDS011;66629;47.346;19.038;2023-04-09T13:19:19;14.50;;;10.80;;
77518;SDS011;66629;47.346;19.038;2023-04-09T13:21:44;12.73;;;10.80;;
77518;SDS011;66629;47.346;19.038;2023-04-09T13:24:09;13.80;;;9.90;;
77518;SDS011;66629;47.346;19.038;2023-04-09T13:26:35;13.55;;;11.32;;
77518;SDS011;66629;47.346;19.038;2023-04-09T13:29:01;12.75;;;10.43;;
77518;SDS011;66629;47.346;19.038;2023-04-09T13:31:27;12.50;;;9.15;;
77518;SDS011;66629;47.346;19.038;2023-04-09T13:33:52;13.23;;;10.10;;
77518;SDS011;66629;47.346;19.038;2023-04-09T13:36:18;11.85;;;9.45;;
77518;SDS011;66629;47.346;19.038;2023-04-09T13:38:43;11.77;;;10.00;;
77518;SDS011;66629;47.346;19.038;2023-04-09T13:41:09;11.75;;;9.77;;
77518;SDS011;66629;47.346;19.038;2023-04-09T13:43:34;14.40;;;11.73;;
77518;SDS011;66629;47.346;19.038;2023-04-09T13:46:00;12.35;;;10.13;;
77518;SDS011;66629;47.346;19.038;2023-04-09T13:48:25;13.25;;;10.13;;
77518;SDS011;66629;47.346;19.038;2023-04-09T13:50:50;13.40;;;10.35;;
77518;SDS011;66629;47.346;19.038;2023-04-09T13:53:16;12.43;;;9.30;;
77518;SDS011;66629;47.346;19.038;2023-04-09T13:55:42;13.10;;;10.18;;
77518;SDS011;66629;47.346;19.038;2023-04-09T13:58:08;13.05;;;10.35;;
77518;SDS011;66629;47.346;19.038;2023-04-09T14:00:34;18.65;;;13.98;;
77518;SDS011;66629;47.346;19.038;2023-04-09T14:03:00;13.00;;;10.07;;
77518;SDS011;66629;47.346;19.038;2023-04-09T14:05:27;11.30;;;9.10;;
77518;SDS011;66629;47.346;19.038;2023-04-09T14:07:53;12.02;;;9.40;;
77518;SDS011;66629;47.346;19.038;2023-04-09T14:10:18;11.65;;;8.75;;
77518;SDS011;66629;47.346;19.038;2023-04-09T14:12:44;12.23;;;9.57;;
77518;SDS011;66629;47.346;19.038;2023-04-09T14:15:10;12.38;;;9.60;;
77518;SDS011;66629;47.346;19.038;2023-04-09T14:17:35;11.23;;;8.98;;
77518;SDS011;66629;47.346;19.038;2023-04-09T14:20:01;13.90;;;9.63;;
77518;SDS011;66629;47.346;19.038;2023-04-09T14:22:28;11.38;;;9.38;;
77518;SDS011;66629;47.346;19.038;2023-04-09T14:24:54;11.70;;;9.30;;
77518;SDS011;66629;47.346;19.038;2023-04-09T14:27:19;12.50;;;9.50;;
77518;SDS011;66629;47.346;19.038;2023-04-09T14:29:45;11.10;;;9.20;;